sensor_id;sensor_type;location;lat;lon;timestamp;pressure;altitude;pressure_sealevel;temperature;humidity
66398;BME280;54877;51.504;3.894;2023-06-04T00:01:51;102240.81;;;18.64;48.78
66398;BME280;54877;51.504;3.894;2023-06-04T00:04:16;102244.84;;;18.57;48.77
66398;BME280;54877;51.504;3.894;2023-06-04T00:06:41;102241.84;;;18.48;49.12
66398;BME280;54877;51.504;3.894;2023-06-04T00:09:07;102241.91;;;18.46;49.04
66398;BME280;54877;51.504;3.894;2023-06-04T00:11:32;102246.25;;;18.49;49.03
66398;BME280;54877;51.504;3.894;2023-06-04T00:13:59;102245.38;;;18.48;49.16
66398;BME280;54877;51.504;3.894;2023-06-04T00:16:24;102239.53;;;18.42;49.28
66398;BME280;54877;51.504;3.894;2023-06-04T00:18:50;102235.38;;;18.36;49.30
66398;BME280;54877;51.504;3.894;2023-06-04T00:21:15;102239.38;;;18.29;49.48
66398;BME280;54877;51.504;3.894;2023-06-04T00:23:40;102242.81;;;18.31;49.34
66398;BME280;54877;51.504;3.894;2023-06-04T00:26:07;102237.03;;;18.39;49.32
66398;BME280;54877;51.504;3.894;2023-06-04T00:28:32;102241.59;;;18.37;49.45
66398;BME280;54877;51.504;3.894;2023-06-04T00:30:57;102240.94;;;18.33;49.44
66398;BME280;54877;51.504;3.894;2023-06-04T00:33:22;102249.91;;;18.32;49.44
66398;BME280;54877;51.504;3.894;2023-06-04T00:35:48;102245.50;;;18.31;49.50
66398;BME280;54877;51.504;3.894;2023-06-04T00:38:13;102243.56;;;18.19;49.94
66398;BME280;54877;51.504;3.894;2023-06-04T00:40:38;102240.59;;;18.24;49.97
66398;BME280;54877;51.504;3.894;2023-06-04T00:43:04;102248.75;;;18.22;49.88
66398;BME280;54877;51.504;3.894;2023-06-04T00:45:30;102244.31;;;18.21;50.03
66398;BME280;54877;51.504;3.894;2023-06-04T00:47:56;102244.50;;;18.18;49.79
66398;BME280;54877;51.504;3.894;2023-06-04T00:50:21;102237.44;;;18.17;49.81
66398;BME280;54877;51.504;3.894;2023-06-04T00:52:47;102237.00;;;18.09;50.14
66398;BME280;54877;51.504;3.894;2023-06-04T00:55:14;102236.41;;;18.04;50.42
66398;BME280;54877;51.504;3.894;2023-06-04T00:57:43;102240.56;;;18.09;50.00
66398;BME280;54877;51.504;3.894;2023-06-04T01:00:08;102237.97;;;18.08;50.07
66398;BME280;54877;51.504;3.894;2023-06-04T01:02:34;102237.75;;;17.97;50.45
66398;BME280;54877;51.504;3.894;2023-06-04T01:08:05;102244.66;;;17.85;50.60
66398;BME280;54877;51.504;3.894;2023-06-04T01:10:34;102241.72;;;17.90;50.54
66398;BME280;54877;51.504;3.894;2023-06-04T01:12:59;102236.97;;;17.79;50.89
66398;BME280;54877;51.504;3.894;2023-06-04T01:15:25;102236.53;;;17.87;50.73
66398;BME280;54877;51.504;3.894;2023-06-04T01:17:51;102234.88;;;17.84;50.87
66398;BME280;54877;51.504;3.894;2023-06-04T01:20:40;102241.41;;;17.80;51.00
66398;BME280;54877;51.504;3.894;2023-06-04T01:25:48;102241.88;;;17.87;50.93
66398;BME280;54877;51.504;3.894;2023-06-04T01:28:15;102240.88;;;17.74;51.08
66398;BME280;54877;51.504;3.894;2023-06-04T01:30:43;102243.38;;;17.77;51.21
66398;BME280;54877;51.504;3.894;2023-06-04T01:33:14;102245.88;;;17.80;51.03
66398;BME280;54877;51.504;3.894;2023-06-04T01:35:41;102237.94;;;17.78;51.10
66398;BME280;54877;51.504;3.894;2023-06-04T01:38:07;102237.06;;;17.62;51.69
66398;BME280;54877;51.504;3.894;2023-06-04T01:40:33;102235.50;;;17.74;51.30
66398;BME280;54877;51.504;3.894;2023-06-04T01:42:58;102233.97;;;17.70;51.43
66398;BME280;54877;51.504;3.894;2023-06-04T01:45:25;102235.84;;;17.68;51.63
66398;BME280;54877;51.504;3.894;2023-06-04T01:47:51;102231.91;;;17.59;51.93
66398;BME280;54877;51.504;3.894;2023-06-04T01:50:17;102242.19;;;17.67;51.82
66398;BME280;54877;51.504;3.894;2023-06-04T01:52:42;102236.56;;;17.55;51.96
66398;BME280;54877;51.504;3.894;2023-06-04T01:55:08;102239.16;;;17.57;52.01
66398;BME280;54877;51.504;3.894;2023-06-04T01:57:37;102232.59;;;17.63;51.90
66398;BME280;54877;51.504;3.894;2023-06-04T02:00:03;102232.84;;;17.58;51.86
66398;BME280;54877;51.504;3.894;2023-06-04T02:02:32;102233.91;;;17.55;52.03
66398;BME280;54877;51.504;3.894;2023-06-04T02:04:58;102230.09;;;17.59;51.73
66398;BME280;54877;51.504;3.894;2023-06-04T02:07:23;102233.56;;;17.62;51.59
66398;BME280;54877;51.504;3.894;2023-06-04T02:09:49;102233.19;;;17.36;51.94
66398;BME280;54877;51.504;3.894;2023-06-04T02:12:15;102231.69;;;17.46;51.96
66398;BME280;54877;51.504;3.894;2023-06-04T02:14:41;102234.03;;;17.52;51.65
66398;BME280;54877;51.504;3.894;2023-06-04T02:17:07;102222.72;;;17.47;52.03
66398;BME280;54877;51.504;3.894;2023-06-04T02:19:37;102226.00;;;17.52;51.85
66398;BME280;54877;51.504;3.894;2023-06-04T02:22:04;102233.34;;;17.49;51.97
66398;BME280;54877;51.504;3.894;2023-06-04T02:24:30;102224.44;;;17.48;51.94
66398;BME280;54877;51.504;3.894;2023-06-04T02:26:56;102224.09;;;17.39;52.30
66398;BME280;54877;51.504;3.894;2023-06-04T02:29:21;102227.22;;;17.31;52.33
66398;BME280;54877;51.504;3.894;2023-06-04T02:31:46;102233.19;;;17.36;52.26
66398;BME280;54877;51.504;3.894;2023-06-04T02:34:11;102227.03;;;17.34;52.37
66398;BME280;54877;51.504;3.894;2023-06-04T02:36:37;102227.56;;;17.25;52.58
66398;BME280;54877;51.504;3.894;2023-06-04T02:39:02;102234.63;;;17.26;52.62
66398;BME280;54877;51.504;3.894;2023-06-04T02:41:28;102231.16;;;17.24;52.46
66398;BME280;54877;51.504;3.894;2023-06-04T02:43:53;102229.44;;;17.23;52.43
66398;BME280;54877;51.504;3.894;2023-06-04T02:46:18;102229.44;;;17.23;52.64
66398;BME280;54877;51.504;3.894;2023-06-04T02:48:44;102226.69;;;17.25;52.38
66398;BME280;54877;51.504;3.894;2023-06-04T02:51:09;102232.97;;;17.24;52.69
66398;BME280;54877;51.504;3.894;2023-06-04T02:53:38;102227.88;;;17.19;52.56
66398;BME280;54877;51.504;3.894;2023-06-04T02:56:03;102233.75;;;17.10;52.71
66398;BME280;54877;51.504;3.894;2023-06-04T02:58:28;102238.84;;;17.15;52.79
66398;BME280;54877;51.504;3.894;2023-06-04T03:00:54;102236.19;;;17.15;52.76
66398;BME280;54877;51.504;3.894;2023-06-04T03:03:20;102241.00;;;17.08;52.83
66398;BME280;54877;51.504;3.894;2023-06-04T03:05:46;102238.75;;;17.16;52.65
66398;BME280;54877;51.504;3.894;2023-06-04T03:08:11;102237.81;;;17.17;52.57
66398;BME280;54877;51.504;3.894;2023-06-04T03:10:36;102243.50;;;17.11;52.80
66398;BME280;54877;51.504;3.894;2023-06-04T03:13:02;102239.78;;;17.14;52.70
66398;BME280;54877;51.504;3.894;2023-06-04T03:15:28;102240.66;;;17.14;52.59
66398;BME280;54877;51.504;3.894;2023-06-04T03:17:53;102242.38;;;17.15;52.49
66398;BME280;54877;51.504;3.894;2023-06-04T03:20:18;102233.75;;;17.10;52.53
66398;BME280;54877;51.504;3.894;2023-06-04T03:22:44;102241.16;;;17.05;52.91
66398;BME280;54877;51.504;3.894;2023-06-04T03:25:09;102247.16;;;16.93;53.03
66398;BME280;54877;51.504;3.894;2023-06-04T03:27:35;102239.69;;;16.99;52.90
66398;BME280;54877;51.504;3.894;2023-06-04T03:30:00;102245.44;;;16.92;53.19
66398;BME280;54877;51.504;3.894;2023-06-04T03:32:26;102244.25;;;16.97;53.04
66398;BME280;54877;51.504;3.894;2023-06-04T03:34:52;102245.44;;;16.92;53.27
66398;BME280;54877;51.504;3.894;2023-06-04T03:37:17;102251.91;;;16.88;53.10
66398;BME280;54877;51.504;3.894;2023-06-04T03:39:42;102250.97;;;16.89;53.11
66398;BME280;54877;51.504;3.894;2023-06-04T03:42:08;102247.34;;;16.90;53.07
66398;BME280;54877;51.504;3.894;2023-06-04T03:44:33;102245.00;;;16.84;53.19
66398;BME280;54877;51.504;3.894;2023-06-04T03:46:59;102241.19;;;16.88;53.13
66398;BME280;54877;51.504;3.894;2023-06-04T03:49:24;102242.00;;;16.90;53.18
66398;BME280;54877;51.504;3.894;2023-06-04T03:51:50;102241.81;;;16.93;53.04
66398;BME280;54877;51.504;3.894;2023-06-04T03:54:16;102236.66;;;16.90;52.99
66398;BME280;54877;51.504;3.894;2023-06-04T03:56:42;102235.63;;;16.92;53.07
66398;BME280;54877;51.504;3.894;2023-06-04T03:59:11;102236.47;;;16.93;52.80
66398;BME280;54877;51.504;3.894;2023-06-04T04:01:37;102235.69;;;16.91;52.87
66398;BME280;54877;51.504;3.894;2023-06-04T04:04:03;102237.31;;;16.78;52.86
66398;BME280;54877;51.504;3.894;2023-06-04T04:06:29;102239.81;;;16.81;52.86
66398;BME280;54877;51.504;3.894;2023-06-04T04:08:55;102234.69;;;16.76;52.73
66398;BME280;54877;51.504;3.894;2023-06-04T04:11:20;102243.69;;;16.75;52.53
66398;BME280;54877;51.504;3.894;2023-06-04T04:13:46;102243.28;;;16.66;52.74
66398;BME280;54877;51.504;3.894;2023-06-04T04:16:13;102234.16;;;16.70;52.61
66398;BME280;54877;51.504;3.894;2023-06-04T04:18:40;102238.97;;;16.63;52.47
66398;BME280;54877;51.504;3.894;2023-06-04T04:21:08;102233.78;;;16.60;52.92
66398;BME280;54877;51.504;3.894;2023-06-04T04:23:33;102234.16;;;16.70;52.61
66398;BME280;54877;51.504;3.894;2023-06-04T04:25:59;102239.69;;;16.67;52.77
66398;BME280;54877;51.504;3.894;2023-06-04T04:28:27;102233.84;;;16.76;52.47
66398;BME280;54877;51.504;3.894;2023-06-04T04:30:53;102237.91;;;16.83;52.33
66398;BME280;54877;51.504;3.894;2023-06-04T04:33:25;102235.56;;;16.77;52.12
66398;BME280;54877;51.504;3.894;2023-06-04T04:35:51;102237.31;;;16.78;52.12
66398;BME280;54877;51.504;3.894;2023-06-04T04:38:17;102233.22;;;16.71;52.13
66398;BME280;54877;51.504;3.894;2023-06-04T04:40:44;102236.28;;;16.80;51.96
66398;BME280;54877;51.504;3.894;2023-06-04T04:43:12;102235.06;;;16.86;51.90
66398;BME280;54877;51.504;3.894;2023-06-04T04:45:37;102236.69;;;17.06;51.20
66398;BME280;54877;51.504;3.894;2023-06-04T04:48:02;102246.03;;;17.30;50.61
66398;BME280;54877;51.504;3.894;2023-06-04T04:50:28;102246.91;;;17.46;49.82
66398;BME280;54877;51.504;3.894;2023-06-04T04:52:53;102232.59;;;17.63;49.55
66398;BME280;54877;51.504;3.894;2023-06-04T04:55:18;102243.81;;;17.69;48.85
66398;BME280;54877;51.504;3.894;2023-06-04T04:57:44;102240.38;;;17.67;49.13
66398;BME280;54877;51.504;3.894;2023-06-04T05:00:09;102242.25;;;17.81;49.03
66398;BME280;54877;51.504;3.894;2023-06-04T05:02:35;102242.34;;;17.95;48.64
66398;BME280;54877;51.504;3.894;2023-06-04T05:05:01;102248.41;;;18.12;48.29
66398;BME280;54877;51.504;3.894;2023-06-04T05:07:27;102250.28;;;18.26;48.10
66398;BME280;54877;51.504;3.894;2023-06-04T05:09:52;102247.75;;;18.39;47.88
66398;BME280;54877;51.504;3.894;2023-06-04T05:12:17;102244.72;;;18.29;47.44
66398;BME280;54877;51.504;3.894;2023-06-04T05:14:43;102245.59;;;18.30;47.19
66398;BME280;54877;51.504;3.894;2023-06-04T05:17:09;102248.19;;;18.31;47.08
66398;BME280;54877;51.504;3.894;2023-06-04T05:19:35;102251.25;;;18.25;46.88
66398;BME280;54877;51.504;3.894;2023-06-04T05:22:02;102249.38;;;18.41;46.86
66398;BME280;54877;51.504;3.894;2023-06-04T05:24:27;102255.63;;;18.26;47.18
66398;BME280;54877;51.504;3.894;2023-06-04T05:26:53;102259.00;;;18.59;46.79
66398;BME280;54877;51.504;3.894;2023-06-04T05:29:19;102256.16;;;18.76;46.64
66398;BME280;54877;51.504;3.894;2023-06-04T05:31:45;102259.53;;;18.80;46.58
66398;BME280;54877;51.504;3.894;2023-06-04T05:34:11;102257.72;;;18.81;46.40
66398;BME280;54877;51.504;3.894;2023-06-04T05:36:41;102263.19;;;18.93;46.27
66398;BME280;54877;51.504;3.894;2023-06-04T05:39:07;102257.03;;;19.19;45.61
66398;BME280;54877;51.504;3.894;2023-06-04T05:41:34;102269.19;;;19.25;45.05
66398;BME280;54877;51.504;3.894;2023-06-04T05:43:59;102257.44;;;19.27;45.30
66398;BME280;54877;51.504;3.894;2023-06-04T05:46:24;102264.84;;;19.38;45.03
66398;BME280;54877;51.504;3.894;2023-06-04T05:48:50;102268.44;;;19.37;44.89
66398;BME280;54877;51.504;3.894;2023-06-04T05:51:16;102273.16;;;19.48;44.80
66398;BME280;54877;51.504;3.894;2023-06-04T05:53:41;102272.50;;;19.44;44.55
66398;BME280;54877;51.504;3.894;2023-06-04T05:56:07;102268.44;;;19.37;44.92
66398;BME280;54877;51.504;3.894;2023-06-04T05:58:33;102268.28;;;19.40;44.90
66398;BME280;54877;51.504;3.894;2023-06-04T06:00:59;102270.25;;;19.51;44.38
66398;BME280;54877;51.504;3.894;2023-06-04T06:03:25;102274.38;;;19.56;44.42
66398;BME280;54877;51.504;3.894;2023-06-04T06:05:52;102270.13;;;19.66;43.77
66398;BME280;54877;51.504;3.894;2023-06-04T06:08:17;102282.06;;;19.62;43.74
66398;BME280;54877;51.504;3.894;2023-06-04T06:10:43;102280.31;;;19.61;43.73
66398;BME280;54877;51.504;3.894;2023-06-04T06:13:08;102281.88;;;19.51;44.04
66398;BME280;54877;51.504;3.894;2023-06-04T06:15:33;102280.88;;;19.66;43.91
66398;BME280;54877;51.504;3.894;2023-06-04T06:17:59;102281.09;;;19.63;44.04
66398;BME280;54877;51.504;3.894;2023-06-04T06:20:25;102273.66;;;19.81;43.80
66398;BME280;54877;51.504;3.894;2023-06-04T06:22:50;102275.81;;;19.88;43.02
66398;BME280;54877;51.504;3.894;2023-06-04T06:25:16;102270.88;;;19.82;43.27
66398;BME280;54877;51.504;3.894;2023-06-04T06:27:42;102271.63;;;19.84;43.61
66398;BME280;54877;51.504;3.894;2023-06-04T06:30:08;102281.34;;;19.73;43.75
66398;BME280;54877;51.504;3.894;2023-06-04T06:32:34;102276.84;;;19.73;43.92
66398;BME280;54877;51.504;3.894;2023-06-04T06:34:59;102288.50;;;19.86;43.57
66398;BME280;54877;51.504;3.894;2023-06-04T06:37:25;102281.78;;;19.93;43.76
66398;BME280;54877;51.504;3.894;2023-06-04T06:39:51;102279.69;;;20.11;43.15
66398;BME280;54877;51.504;3.894;2023-06-04T06:42:16;102270.53;;;20.14;43.34
66398;BME280;54877;51.504;3.894;2023-06-04T06:44:45;102274.06;;;20.28;43.39
66398;BME280;54877;51.504;3.894;2023-06-04T06:47:10;102275.31;;;20.23;43.50
66398;BME280;54877;51.504;3.894;2023-06-04T06:49:38;102275.81;;;20.42;42.88
66398;BME280;54877;51.504;3.894;2023-06-04T06:52:04;102279.72;;;20.50;43.28
66398;BME280;54877;51.504;3.894;2023-06-04T06:54:30;102278.84;;;20.50;42.98
66398;BME280;54877;51.504;3.894;2023-06-04T06:56:55;102275.75;;;20.56;42.57
66398;BME280;54877;51.504;3.894;2023-06-04T06:59:20;102275.19;;;20.51;42.64
66398;BME280;54877;51.504;3.894;2023-06-04T07:01:46;102273.25;;;20.53;42.74
66398;BME280;54877;51.504;3.894;2023-06-04T07:04:12;102267.13;;;20.51;42.82
66398;BME280;54877;51.504;3.894;2023-06-04T07:06:37;102264.56;;;20.62;42.70
66398;BME280;54877;51.504;3.894;2023-06-04T07:09:03;102272.22;;;20.68;42.49
66398;BME280;54877;51.504;3.894;2023-06-04T07:11:30;102275.66;;;20.83;42.14
66398;BME280;54877;51.504;3.894;2023-06-04T07:13:55;102281.25;;;20.92;41.93
66398;BME280;54877;51.504;3.894;2023-06-04T07:16:21;102278.28;;;21.10;41.71
66398;BME280;54877;51.504;3.894;2023-06-04T07:18:47;102279.03;;;21.12;41.15
66398;BME280;54877;51.504;3.894;2023-06-04T07:21:13;102290.78;;;21.23;41.38
66398;BME280;54877;51.504;3.894;2023-06-04T07:23:38;102284.47;;;21.35;40.82
66398;BME280;54877;51.504;3.894;2023-06-04T07:26:03;102279.78;;;21.14;41.06
66398;BME280;54877;51.504;3.894;2023-06-04T07:28:29;102290.41;;;21.40;41.32
66398;BME280;54877;51.504;3.894;2023-06-04T07:30:54;102288.44;;;21.55;40.58
66398;BME280;54877;51.504;3.894;2023-06-04T07:33:20;102286.59;;;21.55;40.49
66398;BME280;54877;51.504;3.894;2023-06-04T07:35:45;102301.53;;;21.72;41.28
66398;BME280;54877;51.504;3.894;2023-06-04T07:38:10;102292.78;;;21.81;41.58
66398;BME280;54877;51.504;3.894;2023-06-04T07:40:36;102296.00;;;21.86;41.57
66398;BME280;54877;51.504;3.894;2023-06-04T07:43:01;102298.59;;;21.88;41.76
66398;BME280;54877;51.504;3.894;2023-06-04T07:45:26;102299.25;;;21.91;41.30
66398;BME280;54877;51.504;3.894;2023-06-04T07:47:54;102299.28;;;21.79;41.29
66398;BME280;54877;51.504;3.894;2023-06-04T07:50:19;102303.91;;;21.89;41.68
66398;BME280;54877;51.504;3.894;2023-06-04T07:52:44;102306.59;;;21.89;41.33
66398;BME280;54877;51.504;3.894;2023-06-04T07:55:10;102306.19;;;21.70;41.36
66398;BME280;54877;51.504;3.894;2023-06-04T07:57:35;102298.59;;;21.88;40.95
66398;BME280;54877;51.504;3.894;2023-06-04T08:00:01;102302.69;;;21.93;41.27
66398;BME280;54877;51.504;3.894;2023-06-04T08:02:29;102302.00;;;22.02;41.08
66398;BME280;54877;51.504;3.894;2023-06-04T08:04:54;102300.41;;;22.00;41.17
66398;BME280;54877;51.504;3.894;2023-06-04T08:07:19;102298.50;;;21.89;40.37
66398;BME280;54877;51.504;3.894;2023-06-04T08:09:45;102297.34;;;22.04;40.53
66398;BME280;54877;51.504;3.894;2023-06-04T08:12:10;102298.84;;;22.08;39.87
66398;BME280;54877;51.504;3.894;2023-06-04T08:14:36;102299.13;;;22.16;40.04
66398;BME280;54877;51.504;3.894;2023-06-04T08:17:01;102302.84;;;22.27;39.69
66398;BME280;54877;51.504;3.894;2023-06-04T08:19:27;102302.84;;;22.50;39.71
66398;BME280;54877;51.504;3.894;2023-06-04T08:21:52;102298.78;;;22.45;39.84
66398;BME280;54877;51.504;3.894;2023-06-04T08:24:18;102305.19;;;22.55;39.75
66398;BME280;54877;51.504;3.894;2023-06-04T08:26:43;102299.78;;;22.55;39.68
66398;BME280;54877;51.504;3.894;2023-06-04T08:29:08;102308.59;;;22.57;39.88
66398;BME280;54877;51.504;3.894;2023-06-04T08:31:34;102297.88;;;22.68;39.89
66398;BME280;54877;51.504;3.894;2023-06-04T08:33:59;102292.97;;;22.73;39.74
66398;BME280;54877;51.504;3.894;2023-06-04T08:36:26;102295.97;;;23.03;39.86
66398;BME280;54877;51.504;3.894;2023-06-04T08:38:52;102303.13;;;23.15;38.79
66398;BME280;54877;51.504;3.894;2023-06-04T08:43:51;102300.16;;;23.18;38.66
66398;BME280;54877;51.504;3.894;2023-06-04T08:46:17;102300.03;;;23.31;38.43
66398;BME280;54877;51.504;3.894;2023-06-04T08:48:44;102305.84;;;23.37;38.29
66398;BME280;54877;51.504;3.894;2023-06-04T08:51:11;102305.63;;;23.41;38.26
66398;BME280;54877;51.504;3.894;2023-06-04T08:53:37;102305.13;;;23.58;37.49
66398;BME280;54877;51.504;3.894;2023-06-04T08:56:03;102303.53;;;23.55;37.92
66398;BME280;54877;51.504;3.894;2023-06-04T08:58:32;102311.50;;;23.57;37.59
66398;BME280;54877;51.504;3.894;2023-06-04T09:01:00;102319.97;;;23.74;37.26
66398;BME280;54877;51.504;3.894;2023-06-04T09:03:26;102317.63;;;23.70;37.75
66398;BME280;54877;51.504;3.894;2023-06-04T09:05:53;102322.69;;;23.63;37.35
66398;BME280;54877;51.504;3.894;2023-06-04T09:08:20;102323.03;;;23.70;37.13
66398;BME280;54877;51.504;3.894;2023-06-04T09:10:48;102321.34;;;23.47;37.40
66398;BME280;54877;51.504;3.894;2023-06-04T09:13:17;102314.59;;;23.52;36.51
66398;BME280;54877;51.504;3.894;2023-06-04T09:15:44;102320.84;;;23.42;36.73
66398;BME280;54877;51.504;3.894;2023-06-04T09:18:11;102324.28;;;23.55;36.80
66398;BME280;54877;51.504;3.894;2023-06-04T09:20:37;102323.03;;;23.48;36.54
66398;BME280;54877;51.504;3.894;2023-06-04T09:23:11;102324.00;;;23.35;37.02
66398;BME280;54877;51.504;3.894;2023-06-04T09:25:37;102314.66;;;23.73;36.14
66398;BME280;54877;51.504;3.894;2023-06-04T09:28:07;102315.91;;;23.69;36.54
66398;BME280;54877;51.504;3.894;2023-06-04T09:30:32;102314.91;;;23.70;36.83
66398;BME280;54877;51.504;3.894;2023-06-04T09:33:07;102320.56;;;23.78;36.68
66398;BME280;54877;51.504;3.894;2023-06-04T09:35:33;102319.19;;;23.83;36.39
66398;BME280;54877;51.504;3.894;2023-06-04T09:37:59;102320.53;;;23.89;36.61
66398;BME280;54877;51.504;3.894;2023-06-04T09:40:24;102320.56;;;23.78;36.58
66398;BME280;54877;51.504;3.894;2023-06-04T09:42:59;102320.50;;;24.00;36.53
66398;BME280;54877;51.504;3.894;2023-06-04T09:45:28;102327.00;;;24.20;35.50
66398;BME280;54877;51.504;3.894;2023-06-04T09:48:00;102314.59;;;24.17;35.40
66398;BME280;54877;51.504;3.894;2023-06-04T09:50:30;102320.22;;;24.25;35.22
66398;BME280;54877;51.504;3.894;2023-06-04T09:52:58;102328.41;;;24.46;35.43
66398;BME280;54877;51.504;3.894;2023-06-04T09:55:24;102325.06;;;24.74;35.69
66398;BME280;54877;51.504;3.894;2023-06-04T09:57:50;102326.13;;;24.83;34.55
66398;BME280;54877;51.504;3.894;2023-06-04T10:00:17;102322.44;;;24.84;34.45
66398;BME280;54877;51.504;3.894;2023-06-04T10:02:44;102319.38;;;24.98;34.82
66398;BME280;54877;51.504;3.894;2023-06-04T10:05:11;102320.94;;;24.91;34.73
66398;BME280;54877;51.504;3.894;2023-06-04T10:07:39;102329.19;;;24.78;34.01
66398;BME280;54877;51.504;3.894;2023-06-04T10:10:09;102325.34;;;24.92;34.34
66398;BME280;54877;51.504;3.894;2023-06-04T10:12:39;102316.63;;;24.77;33.96
66398;BME280;54877;51.504;3.894;2023-06-04T10:15:07;102329.34;;;24.97;34.12
66398;BME280;54877;51.504;3.894;2023-06-04T10:17:36;102320.72;;;24.72;34.72
66398;BME280;54877;51.504;3.894;2023-06-04T10:20:02;102318.22;;;24.91;34.64
66398;BME280;54877;51.504;3.894;2023-06-04T10:22:34;102319.91;;;24.92;34.18
66398;BME280;54877;51.504;3.894;2023-06-04T10:25:00;102317.72;;;25.06;34.48
66398;BME280;54877;51.504;3.894;2023-06-04T10:27:27;102318.41;;;25.29;34.04
66398;BME280;54877;51.504;3.894;2023-06-04T10:29:54;102317.84;;;25.35;33.39
66398;BME280;54877;51.504;3.894;2023-06-04T10:32:20;102311.50;;;25.46;33.21
66398;BME280;54877;51.504;3.894;2023-06-04T10:34:46;102329.41;;;25.58;33.01
66398;BME280;54877;51.504;3.894;2023-06-04T10:37:22;102318.41;;;25.29;32.86
66398;BME280;54877;51.504;3.894;2023-06-04T10:39:52;102316.00;;;25.56;32.96
66398;BME280;54877;51.504;3.894;2023-06-04T10:42:18;102312.63;;;25.43;33.09
66398;BME280;54877;51.504;3.894;2023-06-04T10:44:46;102306.84;;;25.57;33.05
66398;BME280;54877;51.504;3.894;2023-06-04T10:47:19;102310.03;;;25.62;32.30
66398;BME280;54877;51.504;3.894;2023-06-04T10:49:46;102312.34;;;25.86;30.91
66398;BME280;54877;51.504;3.894;2023-06-04T10:52:12;102320.72;;;25.64;31.94
66398;BME280;54877;51.504;3.894;2023-06-04T10:54:37;102312.34;;;25.77;32.05
66398;BME280;54877;51.504;3.894;2023-06-04T10:57:16;102316.91;;;25.86;31.69
66398;BME280;54877;51.504;3.894;2023-06-04T10:59:52;102316.19;;;25.74;31.21
66398;BME280;54877;51.504;3.894;2023-06-04T11:02:21;102311.78;;;25.83;30.31
66398;BME280;54877;51.504;3.894;2023-06-04T11:04:47;102309.22;;;25.91;30.56
66398;BME280;54877;51.504;3.894;2023-06-04T11:07:12;102314.38;;;25.94;31.37
66398;BME280;54877;51.504;3.894;2023-06-04T11:09:38;102308.09;;;26.03;31.73
66398;BME280;54877;51.504;3.894;2023-06-04T11:12:13;102309.03;;;26.22;31.76
66398;BME280;54877;51.504;3.894;2023-06-04T11:14:38;102315.03;;;26.26;31.56
66398;BME280;54877;51.504;3.894;2023-06-04T11:17:10;102306.41;;;26.11;31.23
66398;BME280;54877;51.504;3.894;2023-06-04T11:19:37;102313.16;;;26.17;30.46
66398;BME280;54877;51.504;3.894;2023-06-04T11:22:04;102306.88;;;26.16;30.71
66398;BME280;54877;51.504;3.894;2023-06-04T11:24:30;102316.41;;;26.01;29.86
66398;BME280;54877;51.504;3.894;2023-06-04T11:26:56;102305.19;;;25.85;30.34
66398;BME280;54877;51.504;3.894;2023-06-04T11:29:25;102303.81;;;26.10;29.88
66398;BME280;54877;51.504;3.894;2023-06-04T11:31:50;102300.53;;;25.97;30.18
66398;BME280;54877;51.504;3.894;2023-06-04T11:34:25;102297.84;;;26.06;29.68
66398;BME280;54877;51.504;3.894;2023-06-04T11:36:54;102298.09;;;25.94;30.21
66398;BME280;54877;51.504;3.894;2023-06-04T11:39:20;102296.34;;;25.83;30.29
66398;BME280;54877;51.504;3.894;2023-06-04T11:41:46;102301.34;;;25.88;29.71
66398;BME280;54877;51.504;3.894;2023-06-04T11:44:12;102300.63;;;25.86;30.05
66398;BME280;54877;51.504;3.894;2023-06-04T11:46:42;102292.09;;;25.90;30.05
66398;BME280;54877;51.504;3.894;2023-06-04T11:49:16;102297.22;;;25.84;30.30
66398;BME280;54877;51.504;3.894;2023-06-04T11:51:46;102289.66;;;25.97;30.14
66398;BME280;54877;51.504;3.894;2023-06-04T11:54:16;102291.78;;;25.93;30.04
66398;BME280;54877;51.504;3.894;2023-06-04T11:56:43;102284.50;;;25.84;29.79
66398;BME280;54877;51.504;3.894;2023-06-04T11:59:12;102281.78;;;25.94;29.39
66398;BME280;54877;51.504;3.894;2023-06-04T12:01:39;102293.81;;;26.01;29.04
66398;BME280;54877;51.504;3.894;2023-06-04T12:04:12;102286.81;;;26.08;29.53
66398;BME280;54877;51.504;3.894;2023-06-04T12:06:50;102285.53;;;26.02;29.31
66398;BME280;54877;51.504;3.894;2023-06-04T12:09:27;102284.09;;;25.89;29.46
66398;BME280;54877;51.504;3.894;2023-06-04T12:12:00;102280.97;;;26.03;29.80
66398;BME280;54877;51.504;3.894;2023-06-04T12:14:28;102280.06;;;25.83;29.73
66398;BME280;54877;51.504;3.894;2023-06-04T12:16:57;102282.34;;;25.78;29.77
66398;BME280;54877;51.504;3.894;2023-06-04T12:19:26;102284.59;;;25.63;29.67
66398;BME280;54877;51.504;3.894;2023-06-04T12:22:05;102282.66;;;25.85;29.42
66398;BME280;54877;51.504;3.894;2023-06-04T12:24:32;102277.34;;;25.83;29.10
66398;BME280;54877;51.504;3.894;2023-06-04T12:27:05;102265.78;;;25.81;29.45
66398;BME280;54877;51.504;3.894;2023-06-04T12:29:33;102267.22;;;26.04;29.69
66398;BME280;54877;51.504;3.894;2023-06-04T12:32:06;102263.72;;;26.23;30.35
66398;BME280;54877;51.504;3.894;2023-06-04T12:34:35;102269.00;;;26.15;29.69
66398;BME280;54877;51.504;3.894;2023-06-04T12:37:01;102270.53;;;26.08;30.05
66398;BME280;54877;51.504;3.894;2023-06-04T12:39:31;102269.94;;;25.85;30.07
66398;BME280;54877;51.504;3.894;2023-06-04T12:41:57;102276.13;;;25.47;29.88
66398;BME280;54877;51.504;3.894;2023-06-04T12:44:23;102269.22;;;25.74;30.28
66398;BME280;54877;51.504;3.894;2023-06-04T12:46:48;102264.63;;;25.74;29.95
66398;BME280;54877;51.504;3.894;2023-06-04T12:49:15;102266.03;;;25.68;30.08
66398;BME280;54877;51.504;3.894;2023-06-04T12:51:40;102266.91;;;25.69;29.90
66398;BME280;54877;51.504;3.894;2023-06-04T12:54:06;102266.22;;;25.77;30.10
66398;BME280;54877;51.504;3.894;2023-06-04T12:56:32;102267.81;;;25.89;30.07